sensor_id;sensor_type;location;lat;lon;timestamp;P1;durP1;ratioP1;P2;durP2;ratioP2
68507;SDS011;55510;49.560;19.090;2023-03-01T10:48:31;29.42;;;15.15;;
68507;SDS011;55510;49.560;19.090;2023-03-01T10:51:32;21.90;;;12.00;;
68507;SDS011;55510;49.560;19.090;2023-03-01T10:54:33;20.83;;;12.45;;
68507;SDS011;55510;49.560;19.090;2023-03-01T10:57:37;21.70;;;11.60;;
68507;SDS011;55510;49.560;19.090;2023-03-01T11:07:07;20.15;;;11.50;;
68507;SDS011;55510;49.560;19.090;2023-03-01T11:10:15;21.80;;;12.80;;
68507;SDS011;55510;49.560;19.090;2023-03-01T11:13:18;20.13;;;11.95;;
68507;SDS011;55510;49.560;19.090;2023-03-01T11:16:24;24.17;;;13.90;;
68507;SDS011;55510;49.560;19.090;2023-03-01T11:19:59;22.75;;;12.52;;
68507;SDS011;55510;49.560;19.090;2023-03-01T11:23:13;19.05;;;11.15;;
68507;SDS011;55510;49.560;19.090;2023-03-01T11:26:15;19.05;;;11.60;;
68507;SDS011;55510;49.560;19.090;2023-03-01T11:29:24;18.67;;;11.32;;
68507;SDS011;55510;49.560;19.090;2023-03-01T11:32:29;20.40;;;10.37;;
68507;SDS011;55510;49.560;19.090;2023-03-01T11:35:37;15.98;;;9.40;;
68507;SDS011;55510;49.560;19.090;2023-03-01T11:38:44;23.58;;;13.80;;
68507;SDS011;55510;49.560;19.090;2023-03-01T11:41:47;24.17;;;13.57;;
68507;SDS011;55510;49.560;19.090;2023-03-01T11:44:52;19.00;;;10.95;;
68507;SDS011;55510;49.560;19.090;2023-03-01T11:51:25;22.05;;;13.05;;
68507;SDS011;55510;49.560;19.090;2023-03-01T11:57:56;23.85;;;13.68;;
68507;SDS011;55510;49.560;19.090;2023-03-01T12:29:26;19.50;;;11.52;;
68507;SDS011;55510;49.560;19.090;2023-03-01T12:32:50;20.67;;;12.07;;
68507;SDS011;55510;49.560;19.090;2023-03-01T12:35:58;20.73;;;13.07;;
68507;SDS011;55510;49.560;19.090;2023-03-01T12:39:24;23.43;;;13.27;;
68507;SDS011;55510;49.560;19.090;2023-03-01T12:46:56;21.75;;;14.13;;
68507;SDS011;55510;49.560;19.090;2023-03-01T12:50:11;19.73;;;12.18;;
68507;SDS011;55510;49.560;19.090;2023-03-01T12:53:22;23.35;;;13.65;;
68507;SDS011;55510;49.560;19.090;2023-03-01T12:56:29;24.53;;;15.20;;
68507;SDS011;55510;49.560;19.090;2023-03-01T13:03:11;22.08;;;12.95;;
68507;SDS011;55510;49.560;19.090;2023-03-01T13:09:34;20.98;;;12.52;;
68507;SDS011;55510;49.560;19.090;2023-03-01T13:13:00;22.43;;;12.47;;
68507;SDS011;55510;49.560;19.090;2023-03-01T13:16:38;25.65;;;13.70;;
68507;SDS011;55510;49.560;19.090;2023-03-01T13:19:40;24.05;;;13.15;;
68507;SDS011;55510;49.560;19.090;2023-03-01T13:23:04;25.65;;;13.98;;
68507;SDS011;55510;49.560;19.090;2023-03-01T13:29:25;25.37;;;14.17;;
68507;SDS011;55510;49.560;19.090;2023-03-01T13:32:27;27.95;;;14.82;;
68507;SDS011;55510;49.560;19.090;2023-03-01T13:35:40;30.70;;;15.02;;
68507;SDS011;55510;49.560;19.090;2023-03-01T13:41:52;29.00;;;14.95;;
68507;SDS011;55510;49.560;19.090;2023-03-01T13:44:56;26.57;;;14.43;;
68507;SDS011;55510;49.560;19.090;2023-03-01T13:47:58;25.38;;;13.05;;
68507;SDS011;55510;49.560;19.090;2023-03-01T13:51:03;25.83;;;13.25;;
68507;SDS011;55510;49.560;19.090;2023-03-01T13:54:09;42.95;;;22.52;;
68507;SDS011;55510;49.560;19.090;2023-03-01T13:57:12;37.53;;;19.02;;
68507;SDS011;55510;49.560;19.090;2023-03-01T14:00:26;27.47;;;15.10;;
68507;SDS011;55510;49.560;19.090;2023-03-01T14:03:34;27.17;;;14.45;;
68507;SDS011;55510;49.560;19.090;2023-03-01T14:06:42;34.15;;;18.27;;
68507;SDS011;55510;49.560;19.090;2023-03-01T14:09:43;30.20;;;15.10;;
68507;SDS011;55510;49.560;19.090;2023-03-01T14:13:00;26.37;;;13.33;;
68507;SDS011;55510;49.560;19.090;2023-03-01T14:19:27;26.92;;;13.95;;
68507;SDS011;55510;49.560;19.090;2023-03-01T14:22:33;25.33;;;13.20;;
68507;SDS011;55510;49.560;19.090;2023-03-01T14:25:36;24.63;;;13.00;;
68507;SDS011;55510;49.560;19.090;2023-03-01T14:28:38;32.63;;;15.20;;
68507;SDS011;55510;49.560;19.090;2023-03-01T14:31:42;30.10;;;14.63;;
68507;SDS011;55510;49.560;19.090;2023-03-01T14:34:44;32.00;;;15.55;;
68507;SDS011;55510;49.560;19.090;2023-03-01T14:37:46;36.03;;;17.03;;
68507;SDS011;55510;49.560;19.090;2023-03-01T14:40:51;32.50;;;15.73;;
68507;SDS011;55510;49.560;19.090;2023-03-01T14:43:57;28.55;;;14.43;;
68507;SDS011;55510;49.560;19.090;2023-03-01T14:47:01;38.58;;;18.48;;
68507;SDS011;55510;49.560;19.090;2023-03-01T14:53:28;36.93;;;18.93;;
68507;SDS011;55510;49.560;19.090;2023-03-01T14:56:37;38.23;;;16.70;;
68507;SDS011;55510;49.560;19.090;2023-03-01T14:59:44;36.55;;;15.93;;
68507;SDS011;55510;49.560;19.090;2023-03-01T15:02:47;32.88;;;16.67;;
68507;SDS011;55510;49.560;19.090;2023-03-01T15:05:49;35.75;;;16.38;;
68507;SDS011;55510;49.560;19.090;2023-03-01T15:08:52;32.43;;;16.37;;
68507;SDS011;55510;49.560;19.090;2023-03-01T15:11:54;33.90;;;16.70;;
68507;SDS011;55510;49.560;19.090;2023-03-01T15:14:55;30.85;;;15.90;;
68507;SDS011;55510;49.560;19.090;2023-03-01T15:17:58;32.25;;;14.02;;
68507;SDS011;55510;49.560;19.090;2023-03-01T15:21:15;31.97;;;14.40;;
68507;SDS011;55510;49.560;19.090;2023-03-01T15:24:24;28.90;;;13.43;;
68507;SDS011;55510;49.560;19.090;2023-03-01T15:27:27;28.58;;;13.30;;
68507;SDS011;55510;49.560;19.090;2023-03-01T15:33:36;33.33;;;15.68;;
68507;SDS011;55510;49.560;19.090;2023-03-01T15:36:42;94.35;;;50.97;;
68507;SDS011;55510;49.560;19.090;2023-03-01T15:39:56;62.67;;;29.83;;
68507;SDS011;55510;49.560;19.090;2023-03-01T15:42:58;57.90;;;24.15;;
68507;SDS011;55510;49.560;19.090;2023-03-01T15:45:59;53.50;;;26.43;;
68507;SDS011;55510;49.560;19.090;2023-03-01T15:49:02;48.30;;;21.65;;
68507;SDS011;55510;49.560;19.090;2023-03-01T15:55:35;44.78;;;23.35;;
68507;SDS011;55510;49.560;19.090;2023-03-01T15:58:35;63.07;;;28.67;;
68507;SDS011;55510;49.560;19.090;2023-03-01T16:01:36;68.32;;;29.98;;
68507;SDS011;55510;49.560;19.090;2023-03-01T16:04:37;68.13;;;30.10;;
68507;SDS011;55510;49.560;19.090;2023-03-01T16:07:37;73.72;;;31.95;;
68507;SDS011;55510;49.560;19.090;2023-03-01T16:10:40;67.33;;;29.97;;
68507;SDS011;55510;49.560;19.090;2023-03-01T16:13:44;68.60;;;29.65;;
68507;SDS011;55510;49.560;19.090;2023-03-01T16:16:46;68.15;;;30.05;;
68507;SDS011;55510;49.560;19.090;2023-03-01T16:19:48;68.05;;;28.80;;
68507;SDS011;55510;49.560;19.090;2023-03-01T16:22:49;63.07;;;27.37;;
68507;SDS011;55510;49.560;19.090;2023-03-01T16:25:50;67.15;;;28.55;;
68507;SDS011;55510;49.560;19.090;2023-03-01T16:28:54;64.88;;;26.77;;
68507;SDS011;55510;49.560;19.090;2023-03-01T16:31:56;68.28;;;26.30;;
68507;SDS011;55510;49.560;19.090;2023-03-01T16:35:00;69.77;;;28.47;;
68507;SDS011;55510;49.560;19.090;2023-03-01T16:38:00;72.57;;;28.23;;
68507;SDS011;55510;49.560;19.090;2023-03-01T16:41:01;82.40;;;32.00;;
68507;SDS011;55510;49.560;19.090;2023-03-01T16:44:02;85.15;;;32.13;;
68507;SDS011;55510;49.560;19.090;2023-03-01T16:47:03;102.72;;;41.20;;
68507;SDS011;55510;49.560;19.090;2023-03-01T16:50:04;140.20;;;56.30;;
68507;SDS011;55510;49.560;19.090;2023-03-01T16:53:05;145.23;;;58.78;;
68507;SDS011;55510;49.560;19.090;2023-03-01T16:56:06;145.50;;;57.30;;
68507;SDS011;55510;49.560;19.090;2023-03-01T16:59:09;121.85;;;50.63;;
68507;SDS011;55510;49.560;19.090;2023-03-01T17:02:10;110.63;;;45.70;;
68507;SDS011;55510;49.560;19.090;2023-03-01T17:05:15;103.28;;;41.08;;
68507;SDS011;55510;49.560;19.090;2023-03-01T17:08:15;97.20;;;41.27;;
68507;SDS011;55510;49.560;19.090;2023-03-01T17:11:17;108.93;;;44.25;;
68507;SDS011;55510;49.560;19.090;2023-03-01T17:14:19;98.03;;;42.17;;
68507;SDS011;55510;49.560;19.090;2023-03-01T17:17:21;252.25;;;77.00;;
68507;SDS011;55510;49.560;19.090;2023-03-01T17:20:22;222.63;;;77.60;;
68507;SDS011;55510;49.560;19.090;2023-03-01T17:23:22;182.60;;;64.38;;
68507;SDS011;55510;49.560;19.090;2023-03-01T17:26:23;189.97;;;62.23;;
68507;SDS011;55510;49.560;19.090;2023-03-01T17:29:24;240.07;;;76.35;;
68507;SDS011;55510;49.560;19.090;2023-03-01T17:32:25;256.10;;;82.27;;
68507;SDS011;55510;49.560;19.090;2023-03-01T17:35:25;270.35;;;88.20;;
68507;SDS011;55510;49.560;19.090;2023-03-01T17:38:26;249.43;;;81.23;;
68507;SDS011;55510;49.560;19.090;2023-03-01T17:41:27;240.65;;;78.57;;
68507;SDS011;55510;49.560;19.090;2023-03-01T17:44:28;228.27;;;77.90;;
68507;SDS011;55510;49.560;19.090;2023-03-01T17:47:29;245.52;;;83.85;;
68507;SDS011;55510;49.560;19.090;2023-03-01T17:50:29;252.75;;;85.53;;
68507;SDS011;55510;49.560;19.090;2023-03-01T17:53:30;238.37;;;87.87;;
68507;SDS011;55510;49.560;19.090;2023-03-01T17:56:31;224.17;;;80.17;;
68507;SDS011;55510;49.560;19.090;2023-03-01T17:59:36;221.50;;;82.37;;
68507;SDS011;55510;49.560;19.090;2023-03-01T18:02:37;213.07;;;76.78;;
68507;SDS011;55510;49.560;19.090;2023-03-01T18:05:38;197.55;;;71.00;;
68507;SDS011;55510;49.560;19.090;2023-03-01T18:08:40;197.27;;;70.03;;
68507;SDS011;55510;49.560;19.090;2023-03-01T18:11:41;188.07;;;67.70;;
68507;SDS011;55510;49.560;19.090;2023-03-01T18:14:43;190.13;;;67.65;;
68507;SDS011;55510;49.560;19.090;2023-03-01T18:17:44;210.55;;;72.95;;
68507;SDS011;55510;49.560;19.090;2023-03-01T18:20:44;233.87;;;75.60;;
68507;SDS011;55510;49.560;19.090;2023-03-01T18:23:45;217.65;;;78.32;;
68507;SDS011;55510;49.560;19.090;2023-03-01T18:26:46;190.47;;;69.17;;
68507;SDS011;55510;49.560;19.090;2023-03-01T18:29:47;192.02;;;68.63;;
68507;SDS011;55510;49.560;19.090;2023-03-01T18:32:47;189.33;;;66.53;;
68507;SDS011;55510;49.560;19.090;2023-03-01T18:35:52;183.38;;;64.38;;
68507;SDS011;55510;49.560;19.090;2023-03-01T18:38:53;171.43;;;62.08;;
68507;SDS011;55510;49.560;19.090;2023-03-01T18:41:57;169.55;;;58.92;;
68507;SDS011;55510;49.560;19.090;2023-03-01T18:44:58;177.57;;;63.13;;
68507;SDS011;55510;49.560;19.090;2023-03-01T18:47:59;180.90;;;62.50;;
68507;SDS011;55510;49.560;19.090;2023-03-01T18:51:06;203.50;;;72.90;;
68507;SDS011;55510;49.560;19.090;2023-03-01T18:54:09;202.52;;;75.43;;
68507;SDS011;55510;49.560;19.090;2023-03-01T18:57:14;238.18;;;81.88;;
68507;SDS011;55510;49.560;19.090;2023-03-01T19:00:15;208.50;;;77.63;;
68507;SDS011;55510;49.560;19.090;2023-03-01T19:03:17;193.50;;;68.10;;
68507;SDS011;55510;49.560;19.090;2023-03-01T19:06:18;173.63;;;59.05;;
68507;SDS011;55510;49.560;19.090;2023-03-01T19:09:19;153.75;;;53.10;;
68507;SDS011;55510;49.560;19.090;2023-03-01T19:12:20;130.32;;;47.75;;
68507;SDS011;55510;49.560;19.090;2023-03-01T19:15:21;164.82;;;59.42;;
68507;SDS011;55510;49.560;19.090;2023-03-01T19:18:22;138.73;;;52.23;;
68507;SDS011;55510;49.560;19.090;2023-03-01T19:21:23;150.57;;;52.67;;
68507;SDS011;55510;49.560;19.090;2023-03-01T19:24:27;179.88;;;64.35;;
68507;SDS011;55510;49.560;19.090;2023-03-01T19:27:27;183.50;;;63.67;;
68507;SDS011;55510;49.560;19.090;2023-03-01T19:30:28;178.45;;;66.78;;
68507;SDS011;55510;49.560;19.090;2023-03-01T19:33:29;177.63;;;63.07;;
68507;SDS011;55510;49.560;19.090;2023-03-01T19:36:33;165.07;;;61.72;;
68507;SDS011;55510;49.560;19.090;2023-03-01T19:39:34;172.37;;;61.67;;
68507;SDS011;55510;49.560;19.090;2023-03-01T19:42:36;169.80;;;58.92;;
68507;SDS011;55510;49.560;19.090;2023-03-01T19:45:36;173.40;;;64.32;;
68507;SDS011;55510;49.560;19.090;2023-03-01T19:48:37;204.90;;;69.18;;
68507;SDS011;55510;49.560;19.090;2023-03-01T19:51:39;226.60;;;76.75;;
68507;SDS011;55510;49.560;19.090;2023-03-01T19:54:40;195.80;;;69.27;;
68507;SDS011;55510;49.560;19.090;2023-03-01T19:57:40;215.73;;;75.10;;
68507;SDS011;55510;49.560;19.090;2023-03-01T20:00:43;190.97;;;67.43;;
68507;SDS011;55510;49.560;19.090;2023-03-01T20:03:45;184.32;;;64.05;;
68507;SDS011;55510;49.560;19.090;2023-03-01T20:06:47;172.00;;;62.42;;
68507;SDS011;55510;49.560;19.090;2023-03-01T20:09:48;166.30;;;57.20;;
68507;SDS011;55510;49.560;19.090;2023-03-01T20:12:49;144.07;;;51.47;;
68507;SDS011;55510;49.560;19.090;2023-03-01T20:15:50;156.52;;;52.63;;
68507;SDS011;55510;49.560;19.090;2023-03-01T20:18:51;146.35;;;51.45;;
68507;SDS011;55510;49.560;19.090;2023-03-01T20:21:53;141.40;;;52.65;;
68507;SDS011;55510;49.560;19.090;2023-03-01T20:24:53;176.30;;;59.90;;
68507;SDS011;55510;49.560;19.090;2023-03-01T20:27:54;191.00;;;69.00;;
68507;SDS011;55510;49.560;19.090;2023-03-01T20:31:00;237.27;;;78.88;;
68507;SDS011;55510;49.560;19.090;2023-03-01T20:34:11;258.30;;;82.65;;
68507;SDS011;55510;49.560;19.090;2023-03-01T20:37:12;321.67;;;92.07;;
68507;SDS011;55510;49.560;19.090;2023-03-01T20:40:13;424.30;;;116.70;;
68507;SDS011;55510;49.560;19.090;2023-03-01T20:43:14;380.87;;;109.47;;
68507;SDS011;55510;49.560;19.090;2023-03-01T20:46:14;355.88;;;102.72;;
68507;SDS011;55510;49.560;19.090;2023-03-01T20:49:15;338.50;;;93.53;;
68507;SDS011;55510;49.560;19.090;2023-03-01T20:52:16;328.20;;;88.37;;
68507;SDS011;55510;49.560;19.090;2023-03-01T20:55:17;290.70;;;85.38;;
68507;SDS011;55510;49.560;19.090;2023-03-01T20:58:18;239.63;;;70.95;;
68507;SDS011;55510;49.560;19.090;2023-03-01T21:01:19;238.83;;;69.97;;
68507;SDS011;55510;49.560;19.090;2023-03-01T21:04:20;261.38;;;76.18;;
68507;SDS011;55510;49.560;19.090;2023-03-01T21:07:21;263.42;;;82.15;;
68507;SDS011;55510;49.560;19.090;2023-03-01T21:10:22;254.27;;;81.33;;
68507;SDS011;55510;49.560;19.090;2023-03-01T21:13:23;276.08;;;87.22;;
68507;SDS011;55510;49.560;19.090;2023-03-01T21:16:26;248.10;;;78.43;;
68507;SDS011;55510;49.560;19.090;2023-03-01T21:19:27;275.70;;;84.82;;
68507;SDS011;55510;49.560;19.090;2023-03-01T21:22:28;283.88;;;88.63;;
68507;SDS011;55510;49.560;19.090;2023-03-01T21:25:32;258.80;;;82.60;;
68507;SDS011;55510;49.560;19.090;2023-03-01T21:28:34;232.93;;;79.50;;
68507;SDS011;55510;49.560;19.090;2023-03-01T21:31:35;231.75;;;77.47;;
68507;SDS011;55510;49.560;19.090;2023-03-01T21:34:36;231.57;;;75.83;;
68507;SDS011;55510;49.560;19.090;2023-03-01T21:37:38;221.80;;;72.22;;
68507;SDS011;55510;49.560;19.090;2023-03-01T21:40:39;214.57;;;67.55;;
68507;SDS011;55510;49.560;19.090;2023-03-01T21:43:40;186.82;;;61.78;;
68507;SDS011;55510;49.560;19.090;2023-03-01T21:46:42;208.90;;;70.23;;
68507;SDS011;55510;49.560;19.090;2023-03-01T21:49:43;230.48;;;79.03;;
68507;SDS011;55510;49.560;19.090;2023-03-01T21:52:44;211.63;;;72.27;;
68507;SDS011;55510;49.560;19.090;2023-03-01T21:55:46;206.68;;;70.13;;
68507;SDS011;55510;49.560;19.090;2023-03-01T21:58:47;182.68;;;65.68;;
68507;SDS011;55510;49.560;19.090;2023-03-01T22:01:49;166.57;;;61.67;;
68507;SDS011;55510;49.560;19.090;2023-03-01T22:04:51;179.57;;;62.47;;
68507;SDS011;55510;49.560;19.090;2023-03-01T22:07:56;187.30;;;62.97;;
68507;SDS011;55510;49.560;19.090;2023-03-01T22:11:00;186.40;;;65.77;;
68507;SDS011;55510;49.560;19.090;2023-03-01T22:14:02;183.95;;;64.70;;
68507;SDS011;55510;49.560;19.090;2023-03-01T22:17:04;176.48;;;63.00;;
68507;SDS011;55510;49.560;19.090;2023-03-01T22:20:05;167.13;;;58.03;;
68507;SDS011;55510;49.560;19.090;2023-03-01T22:23:07;169.83;;;62.63;;
68507;SDS011;55510;49.560;19.090;2023-03-01T22:26:08;174.82;;;58.88;;
68507;SDS011;55510;49.560;19.090;2023-03-01T22:29:21;170.45;;;62.00;;
68507;SDS011;55510;49.560;19.090;2023-03-01T22:32:23;154.00;;;56.90;;
68507;SDS011;55510;49.560;19.090;2023-03-01T22:35:24;139.43;;;52.33;;
68507;SDS011;55510;49.560;19.090;2023-03-01T22:38:25;143.43;;;49.40;;
68507;SDS011;55510;49.560;19.090;2023-03-01T22:41:26;145.97;;;49.87;;
68507;SDS011;55510;49.560;19.090;2023-03-01T22:44:28;169.65;;;55.55;;
68507;SDS011;55510;49.560;19.090;2023-03-01T22:47:29;162.17;;;56.17;;
68507;SDS011;55510;49.560;19.090;2023-03-01T22:50:30;158.88;;;52.08;;
68507;SDS011;55510;49.560;19.090;2023-03-01T22:53:31;163.80;;;57.23;;
68507;SDS011;55510;49.560;19.090;2023-03-01T22:56:32;159.43;;;57.53;;
